Time;durP1;ratioP1;P1;durP2;ratioP2;P2;SDS_P1;SDS_P2;PMS_P1;PMS_P2;Temp;Humidity;BMP_temperature;BMP_pressure;BME280_temperature;BME280_humidity;BME280_pressure;Samples;Min_cycle;Max_cycle;Signal;HPM_P1;HPM_P2
2022/09/27 05:04:05;;;;;;;;;;;;;;;9.82;100.00;98081.44;5826893;23;20372;-83
2022/09/27 05:06:31;;;;;;;;;;;;;;;9.85;100.00;98077.75;5002853;28;19925;-83
2022/09/27 05:08:57;;;;;;;;;;;;;;;9.86;100.00;98076.81;4987315;28;19922;-84
2022/09/27 05:11:23;;;;;;;;;;;;;;;9.86;100.00;98078.59;4986935;28;19922;-84
2022/09/27 05:13:49;;;;;;;;;;;;;;;9.85;100.00;98090.16;4987349;28;20360;-84
2022/09/27 05:16:14;;;;;;;;;;;;;;;9.88;100.00;98093.44;5004731;28;19984;-84
2022/09/27 05:18:39;;;;;;;;;;;;;;;9.83;100.00;98084.97;5002697;28;19944;-84
2022/09/27 05:21:05;;;;;;;;;;;;;;;9.86;100.00;98082.13;5004025;28;20430;-84
2022/09/27 05:23:30;;;;;;;;;;;;;;;9.87;100.00;98086.44;5013400;28;19926;-83
2022/09/27 05:25:56;;;;;;;;;;;;;;;9.88;100.00;98090.78;5014154;28;19918;-85
2022/09/27 05:28:22;;;;;;;;;;;;;;;9.88;100.00;98089.94;5013230;28;19921;-84
2022/09/27 05:30:48;;;;;;;;;;;;;;;9.85;100.00;98096.28;5013937;28;19917;-84
2022/09/27 05:33:13;;;;;;;;;;;;;;;9.85;100.00;98101.56;4994875;28;19932;-82
2022/09/27 05:35:44;;;;;;;;;;;;;;;9.91;100.00;98106.47;5013792;28;19922;-82
2022/09/27 05:38:10;;;;;;;;;;;;;;;9.94;100.00;98097.44;5013872;28;19929;-84
2022/09/27 05:40:35;;;;;;;;;;;;;;;9.94;100.00;98103.59;5013671;28;19917;-87
2022/09/27 05:43:00;;;;;;;;;;;;;;;9.93;100.00;98101.06;4996299;28;19967;-84
2022/09/27 05:45:25;;;;;;;;;;;;;;;9.95;100.00;98102.63;4995941;28;19917;-84
2022/09/27 05:47:51;;;;;;;;;;;;;;;9.91;100.00;98106.47;5012958;28;20368;-84
2022/09/27 05:50:16;;;;;;;;;;;;;;;9.92;100.00;98108.13;4995509;28;19917;-84
2022/09/27 05:52:42;;;;;;;;;;;;;;;9.92;100.00;98107.28;4995999;28;19917;-84
2022/09/27 05:55:08;;;;;;;;;;;;;;;9.99;100.00;98108.59;5013563;28;19922;-84
2022/09/27 05:57:33;;;;;;;;;;;;;;;9.96;100.00;98112.28;5013386;28;19949;-84
2022/09/27 05:59:59;;;;;;;;;;;;;;;9.99;100.00;98106.78;5013460;28;19928;-84
2022/09/27 06:02:24;;;;;;;;;;;;;;;9.97;100.00;98116.63;5013243;28;20484;-84
2022/09/27 06:04:49;;;;;;;;;;;;;;;9.94;100.00;98110.69;4990171;28;19922;-89
2022/09/27 06:07:15;;;;;;;;;;;;;;;9.99;100.00;98106.78;4992378;28;20017;-83
2022/09/27 06:09:40;;;;;;;;;;;;;;;9.98;100.00;98113.03;4995487;28;20257;-82
2022/09/27 06:12:10;;;;;;;;;;;;;;;9.95;100.00;98113.22;4995822;28;19922;-82
2022/09/27 06:14:36;;;;;;;;;;;;;;;10.02;100.00;98118.09;5012371;28;19917;-82
2022/09/27 06:17:02;;;;;;;;;;;;;;;9.95;100.00;98113.22;5013075;28;20004;-83
2022/09/27 06:19:27;;;;;;;;;;;;;;;9.97;100.00;98110.47;5011721;28;20012;-83
2022/09/27 06:21:53;;;;;;;;;;;;;;;9.96;100.00;98120.22;5013005;28;19917;-82
2022/09/27 06:24:18;;;;;;;;;;;;;;;9.97;100.00;98116.63;4995295;28;19918;-83
2022/09/27 06:26:44;;;;;;;;;;;;;;;9.93;100.00;98114.28;4995357;28;20000;-84
2022/09/27 06:29:09;;;;;;;;;;;;;;;9.94;100.00;98124.78;5012912;28;19971;-82
2022/09/27 06:31:34;;;;;;;;;;;;;;;10.00;100.00;98120.84;5012656;28;20300;-84
2022/09/27 06:34:00;;;;;;;;;;;;;;;9.95;100.00;98128.25;5011374;28;19967;-84
2022/09/27 06:36:25;;;;;;;;;;;;;;;10.03;100.00;98120.66;5012763;28;19915;-82
2022/09/27 06:38:50;;;;;;;;;;;;;;;10.02;100.00;98118.97;4995090;28;20387;-83
2022/09/27 06:41:16;;;;;;;;;;;;;;;10.05;100.00;98118.78;5012756;28;20334;-82
2022/09/27 06:43:41;;;;;;;;;;;;;;;10.03;100.00;98125.09;5012636;28;19928;-83
2022/09/27 06:46:06;;;;;;;;;;;;;;;10.03;100.00;98120.66;4995007;28;20342;-82
2022/09/27 06:48:32;;;;;;;;;;;;;;;10.00;100.00;98120.84;5011288;28;20347;-83
2022/09/27 06:50:58;;;;;;;;;;;;;;;10.06;100.00;98124.91;5011989;28;19925;-83
2022/09/27 06:53:23;;;;;;;;;;;;;;;10.04;100.00;98118.88;4994827;28;20365;-84
2022/09/27 06:55:50;;;;;;;;;;;;;;;10.11;100.00;98123.63;4994919;28;20307;-83
2022/09/27 07:01:00;;;;;;;;;;;;;;;10.09;100.00;98128.19;5012781;28;20418;-83
2022/09/27 07:03:30;;;;;;;;;;;;;;;10.09;100.00;98124.69;4993269;28;20011;-83
2022/09/27 07:05:59;;;;;;;;;;;;;;;10.10;100.00;98135.19;5012344;28;19975;-82
2022/09/27 07:08:27;;;;;;;;;;;;;;;10.06;100.00;98136.31;5012191;28;20403;-82
2022/09/27 07:10:53;;;;;;;;;;;;;;;10.14;100.00;98139.31;5012141;28;20284;-82
2022/09/27 07:13:18;;;;;;;;;;;;;;;10.07;100.00;98139.81;5011384;28;19963;-82
2022/09/27 07:15:44;;;;;;;;;;;;;;;10.10;100.00;98137.84;4994206;28;20422;-83
2022/09/27 07:18:09;;;;;;;;;;;;;;;10.13;100.00;98142.03;4993298;28;19924;-83
2022/09/27 07:20:37;;;;;;;;;;;;;;;10.09;100.00;98141.41;5012031;28;19918;-83
2022/09/27 07:23:06;;;;;;;;;;;;;;;10.07;100.00;98153.03;4994574;28;19918;-86
2022/09/27 07:25:32;;;;;;;;;;;;;;;10.08;100.00;98154.75;4985837;28;19918;-82
2022/09/27 07:28:04;;;;;;;;;;;;;;;10.09;100.00;98151.16;5011821;28;20272;-85
2022/09/27 07:30:30;;;;;;;;;;;;;;;10.13;100.00;98153.50;5011157;28;19963;-85
2022/09/27 07:32:59;;;;;;;;;;;;;;;10.11;100.00;98154.53;4993820;28;20004;-83
2022/09/27 07:35:24;;;;;;;;;;;;;;;10.06;100.00;98154.00;4994346;28;19978;-83
2022/09/27 07:37:50;;;;;;;;;;;;;;;10.04;100.00;98166.50;4994240;28;20019;-83
2022/09/27 07:40:15;;;;;;;;;;;;;;;10.04;100.00;98170.00;4994314;28;20512;-82
2022/09/27 07:42:41;;;;;;;;;;;;;;;10.10;100.00;98166.06;4994338;28;19918;-82
2022/09/27 07:55:57;;;;;;;;;;;;;;;10.08;100.00;98176.75;5000879;28;19936;-85
2022/09/27 07:58:23;;;;;;;;;;;;;;;10.05;100.00;98170.81;5001455;28;19976;-85
2022/09/27 08:00:48;;;;;;;;;;;;;;;10.05;100.00;98168.19;4984548;28;19957;-83
2022/09/27 08:03:14;;;;;;;;;;;;;;;11.42;100.00;98164.06;5002295;28;20344;-78
2022/09/27 08:05:40;;;;;;;;;;;;;;;12.77;100.00;98154.97;5001734;28;20275;-82
2022/09/27 08:08:06;;;;;;;;;;;;;;;10.88;100.00;98165.22;4979981;28;20407;-82
2022/09/27 08:10:31;;;;;;;;;;;;;;;10.52;100.00;98165.00;4984512;28;20011;-83
2022/09/27 08:12:57;;;;;;;;;;;;;;;10.43;100.00;98164.78;5002117;28;19975;-83
2022/09/27 08:15:23;;;;;;;;;;;;;;;10.40;100.00;98172.94;4999981;28;19918;-83
2022/09/27 08:17:48;;;;;;;;;;;;;;;10.37;100.00;98174.03;4984205;28;20020;-83
2022/09/27 08:20:13;;;;;;;;;;;;;;;10.30;100.00;98168.22;4999296;28;19918;-83
2022/09/27 08:22:40;;;;;;;;;;;;;;;10.33;100.00;98172.53;4998235;28;19945;-84
2022/09/27 08:25:05;;;;;;;;;;;;;;;13.21;100.00;98174.53;4982183;28;20373;-87
2022/09/27 08:27:30;;;;;;;;;;;;;;;14.19;100.00;98165.75;5002728;28;19925;-84
2022/09/27 08:29:56;;;;;;;;;;;;;;;14.39;100.00;98174.75;4987609;28;19929;-84
2022/09/27 08:32:21;;;;;;;;;;;;;;;13.92;100.00;98172.38;4982299;28;20396;-84
2022/09/27 08:34:47;;;;;;;;;;;;;;;11.68;100.00;98174.59;5002637;28;19933;-84
2022/09/27 08:37:12;;;;;;;;;;;;;;;10.99;100.00;98178.59;4986610;28;20425;-86
2022/09/27 08:39:37;;;;;;;;;;;;;;;10.78;100.00;98183.56;4984862;28;19923;-84
2022/09/27 08:42:23;;;;;;;;;;;;;;;10.62;100.00;98185.56;5004607;28;20384;-84
2022/09/27 08:44:55;;;;;;;;;;;;;;;10.52;100.00;98182.72;4999380;28;19925;-88
2022/09/27 08:47:27;;;;;;;;;;;;;;;10.49;100.00;98183.75;5003614;28;19925;-87
2022/09/27 08:50:00;;;;;;;;;;;;;;;10.47;100.00;98180.38;4999465;28;19928;-86
2022/09/27 08:52:28;;;;;;;;;;;;;;;10.50;100.00;98184.63;5002065;28;19921;-84
2022/09/27 08:54:55;;;;;;;;;;;;;;;10.44;100.00;98187.69;4987205;28;19921;-86
2022/09/27 08:57:24;;;;;;;;;;;;;;;10.45;100.00;98184.06;5004846;28;19921;-83
2022/09/27 08:59:56;;;;;;;;;;;;;;;15.21;100.00;98173.97;5005325;28;19921;-87
2022/09/27 09:02:23;;;;;;;;;;;;;;;16.28;100.00;98176.00;5003045;28;19925;-87
2022/09/27 09:04:52;;;;;;;;;;;;;;;16.16;100.00;98169.97;5004387;28;19980;-88
2022/09/27 09:07:31;;;;;;;;;;;;;;;13.65;100.00;98180.81;5001251;28;19936;-87
2022/09/27 09:10:14;;;;;;;;;;;;;;;12.12;100.00;98192.56;5002876;28;19980;-90
2022/09/27 09:12:48;;;;;;;;;;;;;;;11.48;100.00;98189.31;4987379;28;20507;-85
2022/09/27 09:15:21;;;;;;;;;;;;;;;11.31;100.00;98194.00;4986355;28;20273;-91
2022/09/27 09:17:57;;;;;;;;;;;;;;;11.13;100.00;98197.97;5004142;28;20262;-85
2022/09/27 09:20:33;;;;;;;;;;;;;;;11.02;100.00;98194.25;4986628;28;20365;-86
2022/09/27 09:22:58;;;;;;;;;;;;;;;10.94;100.00;98193.94;4984918;28;19921;-86
2022/09/27 09:25:30;;;;;;;;;;;;;;;10.88;100.00;98199.66;5003273;28;20315;-87
2022/09/27 09:28:05;;;;;;;;;;;;;;;10.80;100.00;98196.69;4987395;28;19921;-89
2022/09/27 09:30:37;;;;;;;;;;;;;;;10.78;100.00;98193.31;4985615;28;20292;-85
2022/09/27 09:33:05;;;;;;;;;;;;;;;10.77;100.00;98191.59;5002452;28;19947;-88
2022/09/27 09:35:37;;;;;;;;;;;;;;;10.68;100.00;98193.94;4984247;28;19926;-84
2022/09/27 09:38:08;;;;;;;;;;;;;;;10.68;100.00;98190.47;4983991;28;19925;-88
2022/09/27 09:40:46;;;;;;;;;;;;;;;10.63;100.00;98190.78;5001687;28;19921;-87
2022/09/27 09:43:20;;;;;;;;;;;;;;;10.61;100.00;98186.50;5002533;28;19925;-85
2022/09/27 09:45:48;;;;;;;;;;;;;;;10.62;100.00;98191.72;5001938;28;19925;-88
2022/09/27 09:48:14;;;;;;;;;;;;;;;10.63;100.00;98188.13;4985387;28;19926;-86
2022/09/27 09:50:51;;;;;;;;;;;;;;;10.58;100.00;98182.28;4986508;28;19924;-86
2022/09/27 09:53:19;;;;;;;;;;;;;;;10.53;100.00;98176.47;4998288;28;20016;-88
2022/09/27 09:55:51;;;;;;;;;;;;;;;10.54;100.00;98178.16;4984323;28;20057;-87
2022/09/27 09:58:20;;;;;;;;;;;;;;;10.53;100.00;98179.97;5003536;28;20436;-85
2022/09/27 10:00:46;;;;;;;;;;;;;;;10.51;100.00;98183.66;4980779;28;19973;-86
2022/09/27 10:03:12;;;;;;;;;;;;;;;10.53;100.00;98173.81;4997334;28;20316;-85
2022/09/27 10:05:37;;;;;;;;;;;;;;;10.53;100.00;98165.88;4985846;28;19928;-85
2022/09/27 10:08:05;;;;;;;;;;;;;;;10.51;100.00;98162.47;4980926;28;19926;-86
2022/09/27 10:10:30;;;;;;;;;;;;;;;10.52;100.00;98164.19;4996088;28;19949;-87
2022/09/27 10:12:56;;;;;;;;;;;;;;;10.48;100.00;98160.03;5001492;28;20016;-87
2022/09/27 10:15:23;;;;;;;;;;;;;;;10.51;100.00;98157.16;5002175;28;19928;-85
2022/09/27 10:17:49;;;;;;;;;;;;;;;10.44;100.00;98154.09;4985948;28;20282;-87
2022/09/27 10:20:27;;;;;;;;;;;;;;;10.44;100.00;98150.63;5000465;28;19936;-87
2022/09/27 10:22:55;;;;;;;;;;;;;;;10.47;100.00;98145.13;4999155;28;19921;-88
2022/09/27 10:25:21;;;;;;;;;;;;;;;10.42;100.00;98134.84;5003624;28;19928;-86
2022/09/27 10:27:47;;;;;;;;;;;;;;;10.36;100.00;98133.44;4985085;28;19921;-86
2022/09/27 10:30:24;;;;;;;;;;;;;;;10.38;100.00;98129.84;4981382;28;19922;-87
2022/09/27 10:32:51;;;;;;;;;;;;;;;10.37;100.00;98139.59;5002272;28;20408;-86
2022/09/27 10:35:29;;;;;;;;;;;;;;;10.41;100.00;98130.47;5002051;28;19932;-88
2022/09/27 10:38:13;;;;;;;;;;;;;;;10.44;100.00;98127.63;5000238;28;19917;-86
2022/09/27 10:40:39;;;;;;;;;;;;;;;10.40;100.00;98127.94;5001680;28;19925;-84
2022/09/27 10:43:25;;;;;;;;;;;;;;;10.39;100.00;98131.53;4984571;28;19922;-88
2022/09/27 10:46:08;;;;;;;;;;;;;;;10.37;100.00;98121.06;5003431;28;19921;-86
2022/09/27 10:48:34;;;;;;;;;;;;;;;10.42;100.00;98129.53;4982424;28;19922;-87
2022/09/27 10:51:01;;;;;;;;;;;;;;;10.41;100.00;98121.69;4983447;28;20261;-85
2022/09/27 10:53:28;;;;;;;;;;;;;;;10.40;100.00;98128.78;5001266;28;20368;-86
2022/09/27 10:55:54;;;;;;;;;;;;;;;10.42;100.00;98118.06;5002979;28;19921;-86
2022/09/27 10:58:25;;;;;;;;;;;;;;;10.38;100.00;98112.16;5003054;28;19929;-85
2022/09/27 11:00:55;;;;;;;;;;;;;;;10.38;100.00;98116.59;5002138;28;20012;-87
2022/09/27 11:03:21;;;;;;;;;;;;;;;10.35;100.00;98115.88;5001388;28;19973;-85
2022/09/27 11:05:46;;;;;;;;;;;;;;;10.35;100.00;98117.66;5001582;28;20011;-85
2022/09/27 11:08:17;;;;;;;;;;;;;;;10.37;100.00;98110.47;4998267;28;19928;-87
2022/09/27 11:10:42;;;;;;;;;;;;;;;10.40;100.00;98109.41;5002436;28;19925;-85
2022/09/27 11:13:11;;;;;;;;;;;;;;;10.39;100.00;98115.63;5000384;28;19925;-85
2022/09/27 11:15:57;;;;;;;;;;;;;;;10.40;100.00;98112.88;4995289;28;19926;-87
2022/09/27 11:18:28;;;;;;;;;;;;;;;10.33;100.00;98109.81;4952709;28;19969;-88
2022/09/27 11:21:06;;;;;;;;;;;;;;;10.35;100.00;98110.59;4984476;28;20004;-87
2022/09/27 11:23:36;;;;;;;;;;;;;;;10.29;100.00;98118.91;4982488;28;19922;-85
2022/09/27 11:26:04;;;;;;;;;;;;;;;10.31;100.00;98114.34;4994971;28;20068;-85
2022/09/27 11:28:35;;;;;;;;;;;;;;;10.28;100.00;98114.56;4983155;28;20385;-87
2022/09/27 11:31:19;;;;;;;;;;;;;;;10.28;100.00;98114.56;4984057;28;19925;-85
2022/09/27 11:34:03;;;;;;;;;;;;;;;10.34;100.00;98121.28;4982204;28;20266;-85
2022/09/27 11:36:31;;;;;;;;;;;;;;;10.32;100.00;98126.69;4982844;28;19949;-87
2022/09/27 11:39:12;;;;;;;;;;;;;;;10.33;100.00;98116.91;4985456;28;19929;-88
2022/09/27 11:41:57;;;;;;;;;;;;;;;10.35;100.00;98115.88;5002385;28;19963;-85
2022/09/27 11:44:28;;;;;;;;;;;;;;;10.35;100.00;98113.22;4999436;28;19928;-87
2022/09/27 11:47:14;;;;;;;;;;;;;;;10.30;100.00;98117.94;4999646;28;19921;-87
2022/09/27 11:49:58;;;;;;;;;;;;;;;10.34;100.00;98113.34;4960389;28;20004;-87
2022/09/27 11:52:39;;;;;;;;;;;;;;;10.39;100.00;98110.34;4996927;28;19975;-88
2022/09/27 11:55:25;;;;;;;;;;;;;;;10.34;100.00;98108.88;4983605;28;20008;-86
2022/09/27 11:57:50;;;;;;;;;;;;;;;10.32;100.00;98101.94;4966978;28;20515;-87
2022/09/27 12:00:18;;;;;;;;;;;;;;;10.33;100.00;98101.88;4985358;28;20004;-88
2022/09/27 12:03:23;;;;;;;;;;;;;;;10.39;100.00;98099.75;4999745;28;19925;-86
2022/09/27 12:05:56;;;;;;;;;;;;;;;10.42;100.00;98100.41;5002199;28;19932;-87
2022/09/27 12:08:41;;;;;;;;;;;;;;;10.40;100.00;98083.75;5004347;28;20843;-86
2022/09/27 12:11:13;;;;;;;;;;;;;;;10.37;100.00;98086.66;5003739;28;19954;-86
2022/09/27 12:13:42;;;;;;;;;;;;;;;10.42;100.00;98088.94;5002472;28;19980;-87
2022/09/27 12:16:09;;;;;;;;;;;;;;;10.47;100.00;98076.25;5003088;28;19929;-87
2022/09/27 12:18:38;;;;;;;;;;;;;;;10.42;100.00;98068.63;5005422;28;20289;-86
2022/09/27 12:21:06;;;;;;;;;;;;;;;10.43;100.00;98075.59;5001851;28;19984;-87
2022/09/27 12:23:40;;;;;;;;;;;;;;;10.40;100.00;98061.75;5000520;28;20368;-89
2022/09/27 12:26:36;;;;;;;;;;;;;;;10.33;100.00;98064.81;4985863;28;19930;-86
2022/09/27 12:29:10;;;;;;;;;;;;;;;10.42;100.00;98066.00;4989055;28;20379;-90
2022/09/27 12:31:39;;;;;;;;;;;;;;;12.32;100.00;98054.81;5004958;28;19918;-85
2022/09/27 12:34:08;;;;;;;;;;;;;;;11.99;100.00;98053.78;5003982;28;19980;-94
2022/09/27 12:36:36;;;;;;;;;;;;;;;10.97;100.00;98063.88;4982337;28;19929;-86
2022/09/27 12:39:22;;;;;;;;;;;;;;;10.81;100.00;98063.28;5003883;28;20389;-87
2022/09/27 12:41:55;;;;;;;;;;;;;;;10.68;100.00;98069.44;4999954;28;19976;-86
2022/09/27 12:44:20;;;;;;;;;;;;;;;10.65;100.00;98074.13;4986754;28;19928;-86
2022/09/27 12:46:48;;;;;;;;;;;;;;;10.53;100.00;98081.13;4981048;28;19926;-85
2022/09/27 12:49:22;;;;;;;;;;;;;;;10.54;100.00;98083.66;5004471;28;19949;-84
2022/09/27 12:52:03;;;;;;;;;;;;;;;10.64;100.00;98094.47;5003744;28;19980;-83
2022/09/27 12:54:43;;;;;;;;;;;;;;;10.62;100.00;98095.53;5004094;28;20415;-90
2022/09/27 12:57:17;;;;;;;;;;;;;;;10.54;100.00;98088.09;5004829;28;19918;-89
2022/09/27 12:59:49;;;;;;;;;;;;;;;10.50;100.00;98087.47;4988658;28;20475;-87
2022/09/27 13:02:25;;;;;;;;;;;;;;;10.51;100.00;98088.31;4986160;28;19925;-90
2022/09/27 13:05:10;;;;;;;;;;;;;;;10.52;100.00;98097.97;4987562;28;19945;-85
2022/09/27 13:07:35;;;;;;;;;;;;;;;10.51;100.00;98091.84;4984115;28;20415;-87
2022/09/27 13:10:25;;;;;;;;;;;;;;;10.53;100.00;98097.88;4987735;28;19960;-86
2022/09/27 13:12:53;;;;;;;;;;;;;;;10.56;100.00;98094.13;4998607;28;20092;-86
2022/09/27 13:15:24;;;;;;;;;;;;;;;10.57;100.00;98100.31;4986820;28;19967;-83
2022/09/27 13:17:52;;;;;;;;;;;;;;;10.52;100.00;98105.91;4985134;28;20417;-86
2022/09/27 13:20:26;;;;;;;;;;;;;;;10.55;100.00;98108.34;5000078;28;19922;-86
2022/09/27 13:22:52;;;;;;;;;;;;;;;10.49;100.00;98106.13;4983229;28;19921;-86
2022/09/27 13:25:38;;;;;;;;;;;;;;;10.46;100.00;98106.34;5002736;28;19926;-84
2022/09/27 13:28:24;;;;;;;;;;;;;;;10.46;100.00;98112.47;4984932;28;19975;-84
2022/09/27 13:30:49;;;;;;;;;;;;;;;10.47;100.00;98123.94;4986556;28;19929;-84
2022/09/27 13:33:15;;;;;;;;;;;;;;;10.47;100.00;98123.94;4984548;28;19922;-85
2022/09/27 13:35:42;;;;;;;;;;;;;;;10.44;100.00;98126.78;4987230;28;19924;-85
2022/09/27 13:38:20;;;;;;;;;;;;;;;10.44;100.00;98122.31;4982911;28;20368;-85
2022/09/27 13:40:46;;;;;;;;;;;;;;;10.38;100.00;98120.09;5001877;28;19986;-84
2022/09/27 13:43:16;;;;;;;;;;;;;;;10.42;100.00;98123.38;4982131;28;19933;-84
2022/09/27 13:45:49;;;;;;;;;;;;;;;10.42;100.00;98121.59;4979734;28;20512;-83
2022/09/27 13:48:17;;;;;;;;;;;;;;;10.42;100.00;98115.44;4971358;28;19921;-84
2022/09/27 13:50:55;;;;;;;;;;;;;;;10.36;100.00;98112.25;5003391;28;20411;-84
2022/09/27 13:53:37;;;;;;;;;;;;;;;10.38;100.00;98106.84;4979799;28;20025;-86
2022/09/27 13:56:03;;;;;;;;;;;;;;;10.38;100.00;98106.84;4982407;28;19926;-86
2022/09/27 13:58:47;;;;;;;;;;;;;;;10.36;100.00;98106.97;4986052;28;19968;-85
2022/09/27 14:01:12;;;;;;;;;;;;;;;10.37;100.00;98097.25;4989311;28;19927;-86
2022/09/27 14:03:41;;;;;;;;;;;;;;;10.37;100.00;98091.94;4998483;28;19968;-85
2022/09/27 14:06:12;;;;;;;;;;;;;;;10.45;100.00;98104.63;4984582;28;19922;-87
2022/09/27 14:08:56;;;;;;;;;;;;;;;10.44;100.00;98095.84;4983218;28;19925;-86
2022/09/27 14:11:38;;;;;;;;;;;;;;;12.64;100.00;98099.28;4985238;28;19925;-85
2022/09/27 14:14:04;;;;;;;;;;;;;;;14.31;100.00;98092.81;4983126;28;20004;-79
2022/09/27 14:16:34;;;;;;;;;;;;;;;12.55;100.00;98100.81;4999597;28;19922;-86
2022/09/27 14:19:01;;;;;;;;;;;;;;;11.22;100.00;98115.13;4997113;28;19922;-88
2022/09/27 14:21:34;;;;;;;;;;;;;;;11.00;100.00;98105.22;4999768;28;19983;-85
2022/09/27 14:24:39;;;;;;;;;;;;;;;10.83;100.00;98115.22;4997472;28;21300;-85
2022/09/27 14:27:19;;;;;;;;;;;;;;;10.79;100.00;98112.91;4919517;29;20325;-86
2022/09/27 14:29:57;;;;;;;;;;;;;;;10.69;100.00;98118.84;4936478;29;19967;-85
2022/09/27 14:32:32;;;;;;;;;;;;;;;10.58;100.00;98118.72;4942377;29;20373;-87
2022/09/27 14:38:03;;;;;;;;;;;;;;;10.11;100.00;98122.78;4939114;29;19929;-85
2022/09/27 14:40:29;;;;;;;;;;;;;;;9.97;100.00;98127.22;4928977;29;19923;-83
2022/09/27 14:42:56;;;;;;;;;;;;;;;9.80;100.00;98127.50;4932281;29;19935;-83
2022/09/27 14:45:35;;;;;;;;;;;;;;;9.67;100.00;98134.50;4933748;29;19923;-84
2022/09/27 14:48:01;;;;;;;;;;;;;;;9.58;100.00;98128.03;4929715;29;20297;-84
2022/09/27 14:50:30;;;;;;;;;;;;;;;9.46;100.00;98121.75;4932500;28;20378;-87
2022/09/27 14:52:58;;;;;;;;;;;;;;;9.19;100.00;98125.22;4981816;28;19932;-87
2022/09/27 14:55:24;;;;;;;;;;;;;;;9.06;100.00;98126.94;4984127;28;20384;-87
2022/09/27 14:57:51;;;;;;;;;;;;;;;8.87;100.00;98125.47;4996105;28;19965;-86
2022/09/27 15:00:19;;;;;;;;;;;;;;;8.65;100.00;98123.28;5001034;28;19922;-86
2022/09/27 15:02:45;;;;;;;;;;;;;;;8.47;100.00;98127.03;5002260;28;19926;-85
2022/09/27 15:05:15;;;;;;;;;;;;;;;8.40;100.00;98125.69;5000756;28;19964;-85
2022/09/27 15:07:44;;;;;;;;;;;;;;;8.25;100.00;98124.81;4999500;28;20407;-85
2022/09/27 15:10:15;;;;;;;;;;;;;;;8.03;100.00;98123.47;5000315;28;19964;-85
2022/09/27 15:12:42;;;;;;;;;;;;;;;7.99;100.00;98127.22;4982732;28;20345;-85
2022/09/27 15:15:12;;;;;;;;;;;;;;;7.93;100.00;98130.19;4984385;28;19926;-91
2022/09/27 15:17:42;;;;;;;;;;;;;;;7.95;100.00;98125.72;5001849;28;19917;-85
2022/09/27 15:20:24;;;;;;;;;;;;;;;7.98;100.00;98117.63;4983713;28;19922;-88
2022/09/27 15:22:52;;;;;;;;;;;;;;;7.96;100.00;98119.47;4981265;28;20368;-87
2022/09/27 15:25:23;;;;;;;;;;;;;;;7.91;100.00;98129.44;4999221;28;20025;-88
2022/09/27 15:27:53;;;;;;;;;;;;;;;8.03;100.00;98127.91;4985357;28;19921;-88
2022/09/27 15:30:23;;;;;;;;;;;;;;;8.07;100.00;98127.59;4977260;28;19918;-89
2022/09/27 15:33:12;;;;;;;;;;;;;;;8.03;100.00;98126.09;4983012;28;19933;-91
2022/09/27 15:35:40;;;;;;;;;;;;;;;8.06;100.00;98122.41;5001835;28;19925;-87
2022/09/27 15:38:24;;;;;;;;;;;;;;;8.14;100.00;98121.03;4979014;28;19922;-91
2022/09/27 15:40:49;;;;;;;;;;;;;;;8.19;100.00;98115.50;5002595;28;19922;-87
2022/09/27 15:43:34;;;;;;;;;;;;;;;8.36;100.00;98119.78;4983685;28;19995;-89
2022/09/27 15:46:02;;;;;;;;;;;;;;;8.62;100.00;98120.84;4985726;28;20428;-86
2022/09/27 15:48:28;;;;;;;;;;;;;;;8.73;100.00;98113.09;5000882;28;20395;-86
2022/09/27 15:50:53;;;;;;;;;;;;;;;8.89;100.00;98118.28;5003526;28;20436;-84
2022/09/27 15:53:34;;;;;;;;;;;;;;;9.07;100.00;98116.25;5000767;28;20012;-86
2022/09/27 15:56:05;;;;;;;;;;;;;;;9.24;100.00;98111.72;5004735;28;19971;-88
2022/09/27 15:58:31;;;;;;;;;;;;;;;9.38;100.00;98114.34;4987372;28;19926;-86
2022/09/27 16:00:58;;;;;;;;;;;;;;;9.52;100.00;98121.34;5003004;28;19930;-87
2022/09/27 16:03:24;;;;;;;;;;;;;;;9.58;100.00;98114.81;5005092;28;20012;-84
2022/09/27 16:05:49;;;;;;;;;;;;;;;9.70;100.00;98129.91;5006095;28;19930;-85
2022/09/27 16:08:15;;;;;;;;;;;;;;;9.79;100.00;98139.84;5004346;28;19928;-85
2022/09/27 16:10:42;;;;;;;;;;;;;;;9.84;100.00;98131.59;5005425;28;20012;-86
2022/09/27 16:13:07;;;;;;;;;;;;;;;9.91;100.00;98117.03;5005718;28;20380;-85
2022/09/27 16:15:32;;;;;;;;;;;;;;;9.98;100.00;98114.81;5003085;28;19952;-85
2022/09/27 16:17:58;;;;;;;;;;;;;;;10.03;100.00;98119.81;4987770;28;20284;-85
2022/09/27 16:20:26;;;;;;;;;;;;;;;10.09;100.00;98127.34;5005480;28;20276;-84
2022/09/27 16:22:52;;;;;;;;;;;;;;;10.15;100.00;98124.28;4986674;28;19932;-85
2022/09/27 16:25:18;;;;;;;;;;;;;;;10.18;100.00;98135.50;4987363;28;19929;-84
2022/09/27 16:27:44;;;;;;;;;;;;;;;10.27;100.00;98134.03;4985908;28;20289;-85
2022/09/27 16:30:09;;;;;;;;;;;;;;;10.28;100.00;98141.03;5004102;28;19918;-85
2022/09/27 16:32:46;;;;;;;;;;;;;;;10.35;100.00;98137.06;4997857;28;19925;-85
2022/09/27 16:35:13;;;;;;;;;;;;;;;10.34;100.00;98130.06;4986880;28;19922;-84
2022/09/27 16:37:38;;;;;;;;;;;;;;;10.40;100.00;98138.53;4986702;28;19917;-84
2022/09/27 16:40:05;;;;;;;;;;;;;;;10.46;100.00;98132.81;5005041;28;19924;-84
2022/09/27 16:42:30;;;;;;;;;;;;;;;10.51;100.00;98125.41;4987245;28;20293;-84
2022/09/27 16:45:00;;;;;;;;;;;;;;;10.51;100.00;98135.97;5003246;28;19922;-84
2022/09/27 16:47:25;;;;;;;;;;;;;;;10.55;100.00;98132.19;4987327;28;19929;-85
2022/09/27 16:52:35;;;;;;;;;;;;;;;10.61;100.00;98121.16;5002470;28;20488;-84
2022/09/27 16:55:00;;;;;;;;;;;;;;;10.63;100.00;98113.13;4986425;28;19957;-85
2022/09/27 16:57:32;;;;;;;;;;;;;;;10.65;100.00;98111.19;5004667;28;19918;-86
2022/09/27 17:00:00;;;;;;;;;;;;;;;10.70;100.00;98109.06;4987066;28;19922;-85
2022/09/27 17:02:28;;;;;;;;;;;;;;;10.72;100.00;98107.16;5000997;28;20300;-86
2022/09/27 17:04:53;;;;;;;;;;;;;;;10.78;100.00;98104.06;5000041;28;19926;-86
2022/09/27 17:07:19;;;;;;;;;;;;;;;10.78;100.00;98113.84;5002581;28;19980;-86
2022/09/27 17:09:45;;;;;;;;;;;;;;;10.80;100.00;98109.28;4987043;28;19921;-87
2022/09/27 17:12:11;;;;;;;;;;;;;;;10.83;100.00;98111.72;4983785;28;20408;-86
2022/09/27 17:14:36;;;;;;;;;;;;;;;10.72;100.00;98112.44;4987285;28;20277;-87
2022/09/27 17:17:01;;;;;;;;;;;;;;;9.00;100.00;98122.91;4986187;28;20369;-85
2022/09/27 17:19:27;;;;;;;;;;;;;;;7.95;100.00;98123.06;4986948;28;19925;-84
2022/09/27 17:21:54;;;;;;;;;;;;;;;7.63;100.00;98126.63;4985470;28;19918;-85
2022/09/27 17:24:19;;;;;;;;;;;;;;;7.24;100.00;98135.84;4986114;28;19913;-85
2022/09/27 17:26:44;;;;;;;;;;;;;;;6.95;100.00;98140.06;5003463;28;19932;-86
2022/09/27 17:29:10;;;;;;;;;;;;;;;6.68;100.00;98137.97;5002757;28;19921;-84
2022/09/27 17:31:37;;;;;;;;;;;;;;;6.63;100.00;98142.63;5004391;28;19928;-86
2022/09/27 17:34:02;;;;;;;;;;;;;;;6.46;100.00;98142.66;4985659;28;19922;-85
2022/09/27 17:36:36;;;;;;;;;;;;;;;6.40;100.00;98150.88;4985054;28;19921;-85
2022/09/27 17:39:02;;;;;;;;;;;;;;;6.22;100.00;98147.44;5003971;28;20368;-85
2022/09/27 17:41:27;;;;;;;;;;;;;;;6.10;100.00;98135.75;5003507;28;19964;-85
2022/09/27 17:43:54;;;;;;;;;;;;;;;6.03;100.00;98142.25;4986538;28;19913;-86
2022/09/27 17:46:20;;;;;;;;;;;;;;;5.85;100.00;98157.97;4986433;28;19968;-85
2022/09/27 17:51:31;;;;;;;;;;;;;;;5.65;100.00;98164.22;5002495;28;19995;-86
2022/09/27 17:53:57;;;;;;;;;;;;;;;5.57;100.00;98164.59;4986536;28;19929;-84
2022/09/27 17:56:22;;;;;;;;;;;;;;;5.52;100.00;98149.97;4985808;28;19921;-85
2022/09/27 17:58:49;;;;;;;;;;;;;;;5.43;100.00;98152.13;5003368;28;19922;-86
2022/09/27 18:01:18;;;;;;;;;;;;;;;5.38;100.00;98140.16;4985873;28;19924;-90
2022/09/27 18:03:44;;;;;;;;;;;;;;;5.32;100.00;98133.41;4986223;28;20005;-85
2022/09/27 18:06:11;;;;;;;;;;;;;;;5.18;100.00;98130.56;4985715;28;20383;-87
2022/09/27 18:08:36;;;;;;;;;;;;;;;5.12;100.00;98136.09;5003446;28;19925;-86
2022/09/27 18:11:05;;;;;;;;;;;;;;;5.17;100.00;98140.25;5003633;28;19921;-85
2022/09/27 18:13:36;;;;;;;;;;;;;;;5.06;100.00;98137.25;5003438;28;19917;-84
2022/09/27 18:16:01;;;;;;;;;;;;;;;4.98;100.00;98139.38;5002608;28;20060;-84
2022/09/27 18:18:27;;;;;;;;;;;;;;;4.89;100.00;98138.88;4985187;28;20424;-88